Terminal Aerodrome Forecast
Issued by NWS

Home | Current Version | Previous Version | Graphics & Text | Print | Product List | Glossary Off
Versions: 1 2 3 4 5 6 7 8 9 10 11 12 13 14 15 16

000
FTUS43 KMPX 061120
TAFAXN
TAF
KAXN 061120Z 0612/0712 24008KT P6SM SCT090
     FM061400 29011KT P6SM SCT090
     FM062300 23008KT P6SM BKN050 BKN090
     FM070600 30015KT P6SM BKN015=

USA.gov is the U.S. government's official web portal to all federal, state and local government web resources and services.